METAR Data
IDs: Format: Raw Decoded Include TAF

Data at: 2047 UTC 19 May 2019

PAEN 191953Z 02011KT 10SM SCT060 OVC100 11/06 A2970 RMK AO2 RAE12 SLP058 P0000 T01060056
PAEN 191853Z 02010KT 10SM -RA OVC060 09/06 A2969 RMK AO2 RAB1757 SLP057 P0002 T00890056
PAEN 191753Z 02009KT 10SM OVC070 08/06 A2970 RMK AO2 RAB09E49 SLP060 P0000 60003 T00830056 10083 20072 57005
PAEN 191653Z 02011KT 10SM SCT070 OVC080 08/06 A2970 RMK AO2 RAE30 SLP061 P0001 T00830056
PAEN 191553Z 02011KT 10SM -RA BKN047 OVC060 07/04 A2972 RMK AO2 RAB13 SLP065 P0002 T00720044
PAEN 191453Z 02011KT 10SM OVC095 08/03 A2972 RMK AO2 SLP065 T00780033 56010
PAEN 191353Z 02012KT 10SM BKN120 08/03 A2973 RMK AO2 SLP069 T00780033
PAEN 191253Z AUTO 01011KT 10SM FEW070 08/04 A2973 RMK AO2 SLP071 T00780039 TSNO
PAEN 191153Z AUTO 02012KT 10SM FEW065 SCT100 SCT120 08/03 A2975 RMK AO2 SLP075 T00830033 10100 20072 58006 TSNO
PAEN 191053Z AUTO 01008KT 10SM BKN080 BKN100 08/04 A2976 RMK AO2 SLP079 T00780039 TSNO
PAEN 190953Z AUTO 36006KT 10SM OVC095 08/04 A2976 RMK AO2 SLP080 T00830044 TSNO
PAEN 190853Z AUTO 35007KT 10SM BKN065 OVC075 09/04 A2977 RMK AO2 SLP082 T00890044 401390022 58007 TSNO
PAEN 190753Z AUTO 36005KT 10SM OVC110 09/05 A2978 RMK AO2 SLP085 T00890050 TSNO
PAEN 190653Z AUTO 09004KT 10SM SCT090 OVC110 09/04 A2979 RMK AO2 SLP089 T00940039 TSNO
PAEN 190553Z 14003KT 10SM FEW050 OVC090 10/04 A2979 RMK AO2 SLP089 60000 T01000039 10139 20094 53000
PAEN 190453Z 18003KT 10SM SCT055 OVC070 12/03 A2979 RMK AO2 SLP090 T01170028
PAEN 190353Z 09006KT 10SM OVC070 13/01 A2978 RMK AO2 SLP087 T01280006
PAEN 190253Z 06007KT 10SM SCT070 OVC095 13/01 A2979 RMK AO2 RAB0155E05 SLP089 P0000 60000 T01330006 53000
PAEN 190153Z 01006KT 10SM BKN065 OVC080 13/04 A2978 RMK AO2 RAE26 SLP088 P0000 T01330039
PAEN 190053Z 31006KT 10SM -RA BKN055 OVC070 12/06 A2979 RMK AO2 RAB00E12B52 SLP089 P0000 T01170056
PAEN 182353Z 29008KT 10SM BKN042 BKN049 OVC065 12/06 A2979 RMK AO2 RAB39E53 SLP089 P0000 60000 T01170056 10139 20089 50001
PAEN 182253Z AUTO 31008KT 10SM SCT043 OVC055 12/04 A2979 RMK AO2 SLP090 T01220044 TSNO
PAEN 182153Z 26006KT 10SM FEW030 BKN034 OVC050 11/04 A2979 RMK AO2 SLP089 T01110039
PAEN 182053Z 00000KT 10SM SCT037 OVC060 12/03 A2979 RMK AO2 SLP088 T01220028 50001
PAEN 181953Z 33005KT 10SM FEW030 OVC060 12/03 A2979 RMK AO2 SLP089 T01220028
PAEN 181853Z VRB04KT 10SM OVC060 11/04 A2979 RMK AO2 SLP089 T01060039
PAEN 181753Z VRB03KT 10SM OVC060 09/04 A2978 RMK AO2 SLP088 T00940039 10094 20033 53002
PAEN 181653Z 00000KT 10SM OVC060 07/04 A2978 RMK AO2 SLP085 T00720044
PAEN 181553Z 00000KT 10SM OVC060 06/04 A2978 RMK AO2 SLP087 T00610044
PAEN 181453Z 00000KT 10SM OVC055 04/03 A2978 RMK AO2 SLP085 T00440033 53002
PAEN 181353Z 00000KT 10SM OVC055 05/04 A2977 RMK AO2 SLP084 T00500039
PAEN 181253Z AUTO 00000KT 10SM OVC050 04/03 A2977 RMK AO2 SLP082 T00390028 TSNO
PAEN 181153Z AUTO 00000KT 10SM OVC055 03/02 A2977 RMK AO2 SLP083 70002 T00330022 10083 20022 53004 TSNO
PAEN 181053Z AUTO 00000KT 10SM SCT055 04/03 A2976 RMK AO2 SLP081 T00440028 TSNO
PAEN 180953Z AUTO 22003KT 10SM OVC060 05/03 A2976 RMK AO2 SLP081 T00500033 TSNO
PAEN 180853Z AUTO 08003KT 10SM OVC055 04/02 A2976 RMK AO2 SLP080 T00390022 401390033 53011 TSNO